Terminal Aerodrome Forecast
Issued by NWS

Home | Current Version | Previous Version | Graphics & Text | Print | Product List | Glossary On
Versions: 1 2 3 4 5 6 7 8 9 10 11 12 13 14 15 16 17 18 19
970
FTUS43 KBIS 260540
TAFDIK
TAF
KDIK 260540Z 2606/2706 36005KT 4SM -SN OVC003
      TEMPO 2606/2610 1 1/2SM -SN BR SCT003 OVC007
     FM261000 03005KT 3SM BR OVC003
     FM261800 06009KT P6SM OVC008
     FM262300 05010KT P6SM OVC012
     FM270100 05010KT 3SM -RA BR OVC008=

USA.gov is the U.S. government's official web portal to all federal, state and local government web resources and services.